createdAt,value
2018-10-19T00:01:47.621Z,5.11
2018-10-19T00:04:51.713Z,5.12
2018-10-19T00:07:55.975Z,5.07
2018-10-19T00:11:00.282Z,4.99
2018-10-19T00:14:04.640Z,5.00
2018-10-19T00:17:08.539Z,4.93
2018-10-19T00:20:12.606Z,5.03
2018-10-19T00:23:16.482Z,4.93
2018-10-19T00:26:20.909Z,4.86
2018-10-19T00:29:24.793Z,4.93
2018-10-19T00:32:28.690Z,4.93
2018-10-19T00:35:32.591Z,4.85
2018-10-19T00:38:36.504Z,4.90
2018-10-19T00:41:40.513Z,4.77
2018-10-19T00:44:44.454Z,4.80
2018-10-19T00:47:48.829Z,4.81
2018-10-19T00:50:52.724Z,4.72
2018-10-19T00:53:57.159Z,4.77
2018-10-19T00:57:01.260Z,4.74
2018-10-19T01:00:05.683Z,4.68
2018-10-19T01:03:10.044Z,4.69
2018-10-19T01:06:14.381Z,4.67
2018-10-19T01:09:18.275Z,4.61
2018-10-19T01:12:22.163Z,4.68
2018-10-19T01:15:27.417Z,4.63
2018-10-19T01:18:31.304Z,4.68
2018-10-19T01:21:35.529Z,4.54
2018-10-19T01:24:39.406Z,4.50
2018-10-19T01:27:43.344Z,4.45
2018-10-19T01:30:47.233Z,4.53
2018-10-19T01:33:51.460Z,4.48
2018-10-19T01:36:55.342Z,4.49
2018-10-19T01:39:59.226Z,4.46
2018-10-19T01:43:03.382Z,4.33
2018-10-19T01:46:07.634Z,4.27
2018-10-19T01:49:11.513Z,4.31
2018-10-19T01:52:15.618Z,4.28
2018-10-19T01:55:19.494Z,4.18
2018-10-19T01:58:23.379Z,4.15
2018-10-19T02:01:27.590Z,4.13
2018-10-19T02:04:31.492Z,4.10
2018-10-19T02:07:35.400Z,4.11
2018-10-19T02:10:39.890Z,3.99
2018-10-19T02:13:43.772Z,4.02
2018-10-19T02:16:47.839Z,3.93
2018-10-19T02:19:52.245Z,3.91
2018-10-19T02:22:56.224Z,4.03
2018-10-19T02:26:00.310Z,4.00
2018-10-19T02:29:04.434Z,3.96
2018-10-19T02:32:08.482Z,3.92
2018-10-19T02:35:13.037Z,3.98
2018-10-19T02:38:17.028Z,3.92
2018-10-19T02:41:21.458Z,3.82
2018-10-19T02:44:25.384Z,3.95
2018-10-19T02:47:29.486Z,3.95
2018-10-19T02:50:33.383Z,3.93
2018-10-19T02:53:37.270Z,3.73
2018-10-19T02:56:41.171Z,3.86
2018-10-19T02:59:45.056Z,3.88
2018-10-19T03:02:49.152Z,3.81
2018-10-19T03:05:53.022Z,3.72
2018-10-19T03:08:56.968Z,3.61
2018-10-19T03:12:00.986Z,3.60
2018-10-19T03:15:06.407Z,3.57
2018-10-19T03:18:10.798Z,3.59
2018-10-19T03:21:14.762Z,3.62
2018-10-19T03:24:18.790Z,3.57
2018-10-19T03:27:23.114Z,3.54
2018-10-19T03:30:27.011Z,3.50
2018-10-19T03:33:31.425Z,3.56
2018-10-19T03:36:35.513Z,3.55
2018-10-19T03:39:39.398Z,3.59
2018-10-19T03:42:43.323Z,3.46
2018-10-19T03:45:47.858Z,3.58
2018-10-19T03:48:51.731Z,3.45
2018-10-19T03:51:55.610Z,3.56
2018-10-19T03:54:59.494Z,3.56
2018-10-19T03:58:03.478Z,3.57
2018-10-19T04:01:07.838Z,3.49
2018-10-19T04:04:11.733Z,3.51
2018-10-19T04:07:16.163Z,3.62
2018-10-19T04:10:20.061Z,3.64
2018-10-19T04:13:23.951Z,3.52
2018-10-19T04:16:27.852Z,3.47
2018-10-19T04:19:32.286Z,3.56
2018-10-19T04:22:36.271Z,3.52
2018-10-19T04:25:40.501Z,3.49
2018-10-19T04:28:44.593Z,3.55
2018-10-19T04:31:48.690Z,3.62
2018-10-19T04:34:53.168Z,3.71
2018-10-19T04:37:57.229Z,3.77
2018-10-19T04:41:01.312Z,3.87
2018-10-19T04:44:05.425Z,3.86
2018-10-19T04:47:09.583Z,3.75
2018-10-19T04:50:13.709Z,3.72
2018-10-19T04:53:18.018Z,3.75
2018-10-19T04:56:22.041Z,3.73
2018-10-19T04:59:26.254Z,3.78
2018-10-19T05:02:30.193Z,3.78
2018-10-19T05:05:34.259Z,3.81
2018-10-19T05:08:38.326Z,3.84
2018-10-19T05:11:42.396Z,3.82
2018-10-19T05:14:46.627Z,3.83
2018-10-19T05:17:50.506Z,3.85
2018-10-19T05:20:54.402Z,3.86
2018-10-19T05:23:58.290Z,3.86
2018-10-19T05:27:02.390Z,3.89
2018-10-19T05:30:08.321Z,3.94
2018-10-19T05:33:12.552Z,3.97
2018-10-19T05:36:16.641Z,3.95
2018-10-19T05:39:20.525Z,4.01
2018-10-19T05:42:24.422Z,4.09
2018-10-19T05:45:28.633Z,3.99
2018-10-19T05:48:32.527Z,4.03
2018-10-19T05:51:36.410Z,4.06
2018-10-19T05:54:40.309Z,4.07
2018-10-19T05:57:44.181Z,4.15
2018-10-19T06:00:48.087Z,4.07
2018-10-19T06:03:51.962Z,4.16
2018-10-19T06:06:55.837Z,4.13
2018-10-19T06:09:59.742Z,4.12
2018-10-19T06:13:03.629Z,4.15
2018-10-19T06:16:07.854Z,4.17
2018-10-19T06:19:12.069Z,4.18
2018-10-19T06:22:16.322Z,4.16
2018-10-19T06:25:20.386Z,4.15
2018-10-19T06:28:24.519Z,4.19
2018-10-19T06:31:28.748Z,4.19
2018-10-19T06:34:32.635Z,4.23
2018-10-19T06:37:36.606Z,4.23
2018-10-19T06:40:40.724Z,4.18
2018-10-19T06:43:45.134Z,4.21
2018-10-19T06:46:49.413Z,4.18
2018-10-19T06:49:53.454Z,4.19
2018-10-19T06:52:57.702Z,4.21
2018-10-19T06:56:01.781Z,4.23
2018-10-19T06:59:06.327Z,4.22
2018-10-19T07:02:10.291Z,4.18
2018-10-19T07:05:14.411Z,4.24
2018-10-19T07:08:18.544Z,4.27
2018-10-19T07:11:22.625Z,4.41
2018-10-19T07:14:26.539Z,4.41
2018-10-19T07:17:30.779Z,4.50
2018-10-19T07:20:35.011Z,4.52
2018-10-19T07:23:39.229Z,4.59
2018-10-19T07:26:43.126Z,4.71
2018-10-19T07:29:47.011Z,4.79
2018-10-19T07:32:51.104Z,4.96
2018-10-19T07:35:55.317Z,5.05
2018-10-19T07:38:59.193Z,5.15
2018-10-19T07:42:03.169Z,5.21
2018-10-19T07:45:07.287Z,5.32
2018-10-19T07:48:11.433Z,5.40
2018-10-19T07:51:15.627Z,5.50
2018-10-19T07:54:19.552Z,5.59
2018-10-19T07:57:23.946Z,5.72
2018-10-19T08:00:59.954Z,5.89
2018-10-19T08:04:04.026Z,6.09
2018-10-19T08:07:08.262Z,6.21
2018-10-19T08:10:12.184Z,6.33
2018-10-19T08:13:16.075Z,6.47
2018-10-19T08:19:51.018Z,6.73
2018-10-19T08:22:55.318Z,6.84
2018-10-19T08:25:59.445Z,6.97
2018-10-19T08:29:03.515Z,7.09
2018-10-19T08:32:08.202Z,7.20
2018-10-19T08:35:12.368Z,7.31
2018-10-19T08:38:16.446Z,7.43
2018-10-19T08:41:20.911Z,7.52
2018-10-19T08:44:24.958Z,7.61
2018-10-19T08:47:28.899Z,7.69
2018-10-19T08:50:32.978Z,7.77
2018-10-19T08:53:37.086Z,7.85
2018-10-19T08:56:41.446Z,7.89
2018-10-19T08:59:45.379Z,7.97
2018-10-19T09:02:49.474Z,8.03
2018-10-19T09:05:53.398Z,8.10
2018-10-19T09:08:57.509Z,8.15
2018-10-19T09:12:01.910Z,8.20
2018-10-19T09:15:06.633Z,8.21
2018-10-19T09:18:11.269Z,8.29
2018-10-19T09:21:15.184Z,8.33
2018-10-19T09:24:19.053Z,8.37
2018-10-19T09:27:22.933Z,8.40
2018-10-19T09:30:27.151Z,8.47
2018-10-19T09:33:31.042Z,8.54
2018-10-19T09:36:35.384Z,8.61
2018-10-19T09:39:39.677Z,8.65
2018-10-19T09:42:43.574Z,8.73
2018-10-19T09:45:47.462Z,8.77
2018-10-19T09:48:51.349Z,8.82
2018-10-19T09:51:55.246Z,8.87
2018-10-19T09:54:59.186Z,8.91
2018-10-19T09:58:03.809Z,8.97
2018-10-19T10:01:13.135Z,9.01
2018-10-19T10:04:17.193Z,9.05
2018-10-19T10:07:21.409Z,9.08
2018-10-19T10:10:25.642Z,9.12
2018-10-19T10:13:29.562Z,9.14
2018-10-19T10:16:33.439Z,9.18
2018-10-19T10:19:37.314Z,9.19
2018-10-19T10:22:41.382Z,9.21
2018-10-19T10:25:45.310Z,9.25
2018-10-19T10:28:49.525Z,9.25
2018-10-19T10:31:53.446Z,9.31
2018-10-19T10:34:57.513Z,9.34
2018-10-19T10:38:01.430Z,9.37
2018-10-19T10:41:05.681Z,9.41
2018-10-19T10:44:09.737Z,9.45
2018-10-19T10:47:13.645Z,9.49
2018-10-19T10:50:17.559Z,9.54
2018-10-19T10:53:21.470Z,9.59
2018-10-19T10:56:25.383Z,9.64
2018-10-19T10:59:29.357Z,9.71
2018-10-19T11:02:33.437Z,9.76
2018-10-19T11:05:37.319Z,9.81
2018-10-19T11:08:41.218Z,9.86
2018-10-19T11:11:45.117Z,9.93
2018-10-19T11:14:49.061Z,9.97
2018-10-19T11:17:52.929Z,10.01
2018-10-19T11:20:56.826Z,10.05
2018-10-19T11:24:00.732Z,10.08
2018-10-19T11:27:05.536Z,10.11
2018-10-19T11:30:09.709Z,10.13
2018-10-19T11:33:13.646Z,10.16
2018-10-19T11:36:17.564Z,10.20
2018-10-19T11:39:21.457Z,10.24
2018-10-19T11:42:25.361Z,10.26
2018-10-19T11:45:30.724Z,10.30
2018-10-19T11:48:34.877Z,10.36
2018-10-19T11:51:39.318Z,10.40
2018-10-19T11:54:43.289Z,10.43
2018-10-19T11:57:47.923Z,10.45
2018-10-19T12:00:52.372Z,10.46
2018-10-19T12:03:56.488Z,10.47
2018-10-19T12:07:00.661Z,10.51
2018-10-19T12:10:05.156Z,10.53
2018-10-19T12:13:09.288Z,10.53
2018-10-19T12:16:13.430Z,10.53
2018-10-19T12:19:17.439Z,10.54
2018-10-19T12:22:21.333Z,10.56
2018-10-19T12:25:25.580Z,10.58
2018-10-19T12:28:29.493Z,10.61
2018-10-19T12:31:33.723Z,10.62
2018-10-19T12:34:37.706Z,10.64
2018-10-19T12:37:41.806Z,10.67
2018-10-19T12:40:45.712Z,10.70
2018-10-19T12:43:49.699Z,10.70
2018-10-19T12:47:05.077Z,10.70
2018-10-19T12:50:09.586Z,10.72
2018-10-19T12:53:13.486Z,10.73
2018-10-19T12:56:18.446Z,10.74
2018-10-19T12:59:22.366Z,10.74
2018-10-19T13:02:26.388Z,10.75
2018-10-19T13:05:30.285Z,10.76
2018-10-19T13:08:34.627Z,10.74
2018-10-19T13:11:38.561Z,10.73
2018-10-19T13:14:42.804Z,10.74
2018-10-19T13:17:46.710Z,10.77
2018-10-19T13:20:50.598Z,10.78
2018-10-19T13:23:54.527Z,10.79
2018-10-19T13:26:58.711Z,10.80
2018-10-19T13:30:02.882Z,10.81
2018-10-19T13:33:07.302Z,10.83
2018-10-19T13:36:11.434Z,10.85
2018-10-19T13:39:15.569Z,10.86
2018-10-19T13:42:19.623Z,10.89
2018-10-19T13:45:23.536Z,10.90
2018-10-19T13:48:27.974Z,10.89
2018-10-19T13:51:32.530Z,10.92
2018-10-19T13:54:36.462Z,10.95
2018-10-19T13:57:40.693Z,10.95
2018-10-19T14:00:44.985Z,10.97
2018-10-19T14:03:48.889Z,10.99
2018-10-19T14:06:53.141Z,10.99
2018-10-19T14:09:57.077Z,11.02
2018-10-19T14:13:01.315Z,11.03
2018-10-19T14:16:05.627Z,11.04
2018-10-19T14:19:09.764Z,11.04
2018-10-19T14:22:14.186Z,11.05
2018-10-19T14:25:18.103Z,11.06
2018-10-19T14:28:22.341Z,11.08
2018-10-19T14:31:26.620Z,11.08
2018-10-19T14:34:30.710Z,11.05
2018-10-19T14:37:36.025Z,11.07
2018-10-19T14:40:39.926Z,11.04
2018-10-19T14:43:43.838Z,11.05
2018-10-19T14:46:47.739Z,11.05
2018-10-19T14:49:51.675Z,11.03
2018-10-19T14:52:55.961Z,11.01
2018-10-19T14:56:00.063Z,11.02
2018-10-19T14:59:04.015Z,10.99
2018-10-19T15:02:08.074Z,10.99
2018-10-19T15:05:13.564Z,10.95
2018-10-19T15:08:17.609Z,10.95
2018-10-19T15:11:21.874Z,10.96
2018-10-19T15:14:25.983Z,10.96
2018-10-19T15:17:29.886Z,10.98
2018-10-19T15:20:33.802Z,10.97
2018-10-19T15:23:37.693Z,10.97
2018-10-19T15:26:41.943Z,10.96
2018-10-19T15:29:45.994Z,10.94
2018-10-19T15:32:50.310Z,10.93
2018-10-19T15:35:54.240Z,10.89
2018-10-19T15:38:58.380Z,10.86
2018-10-19T15:42:02.476Z,10.83
2018-10-19T15:45:08.454Z,10.80
2018-10-19T15:48:12.643Z,10.74
2018-10-19T15:51:16.733Z,10.70
2018-10-19T15:54:20.653Z,10.65
2018-10-19T15:57:25.157Z,10.59
2018-10-19T16:00:29.298Z,10.55
2018-10-19T16:03:33.323Z,10.52
2018-10-19T16:06:37.219Z,10.49
2018-10-19T16:09:41.499Z,10.44
2018-10-19T16:12:45.414Z,10.38
2018-10-19T16:15:49.558Z,10.33
2018-10-19T16:18:53.818Z,10.28
2018-10-19T16:22:07.554Z,10.23
2018-10-19T16:25:11.789Z,10.16
2018-10-19T16:28:15.715Z,10.11
2018-10-19T16:31:19.786Z,10.04
2018-10-19T16:34:23.693Z,10.00
2018-10-19T16:37:27.594Z,9.92
2018-10-19T16:40:35.304Z,9.85
2018-10-19T16:43:40.911Z,9.81
2018-10-19T16:46:44.806Z,9.75
2018-10-19T16:49:48.699Z,9.65
2018-10-19T16:52:52.954Z,9.58
2018-10-19T16:55:57.048Z,9.50
2018-10-19T16:59:00.949Z,9.42
2018-10-19T17:02:05.254Z,9.34
2018-10-19T17:05:09.337Z,9.26
2018-10-19T17:08:13.390Z,9.21
2018-10-19T17:11:17.312Z,9.13
2018-10-19T17:14:21.182Z,9.08
2018-10-19T17:17:25.192Z,9.00
2018-10-19T17:20:29.599Z,8.93
2018-10-19T17:23:33.504Z,8.85
2018-10-19T17:26:37.389Z,8.77
2018-10-19T17:29:41.280Z,8.68
2018-10-19T17:32:45.577Z,8.64
2018-10-19T17:35:49.610Z,8.54
2018-10-19T17:38:53.578Z,8.48
2018-10-19T17:41:57.644Z,8.44
2018-10-19T17:45:01.783Z,8.34
2018-10-19T17:48:06.021Z,8.31
2018-10-19T17:51:10.162Z,8.26
2018-10-19T17:54:14.330Z,8.15
2018-10-19T17:57:18.385Z,8.12
2018-10-19T18:00:22.275Z,8.01
2018-10-19T18:03:26.162Z,7.93
2018-10-19T18:06:30.095Z,7.88
2018-10-19T18:09:34.246Z,7.78
2018-10-19T18:12:38.851Z,7.71
2018-10-19T18:15:42.809Z,7.69
2018-10-19T18:18:46.831Z,7.67
2018-10-19T18:21:50.873Z,7.62
2018-10-19T18:24:54.842Z,7.58
2018-10-19T18:27:58.736Z,7.51
2018-10-19T18:31:02.727Z,7.43
2018-10-19T18:34:06.720Z,7.37
2018-10-19T18:37:11.138Z,7.37
2018-10-19T18:40:15.055Z,7.27
2018-10-19T18:43:18.926Z,7.24
2018-10-19T18:46:22.818Z,7.14
2018-10-19T18:49:26.718Z,7.13
2018-10-19T18:52:30.617Z,7.03
2018-10-19T18:55:34.533Z,6.93
2018-10-19T18:58:38.417Z,6.91
2018-10-19T19:01:42.339Z,6.91
2018-10-19T19:04:46.229Z,6.82
2018-10-19T19:07:50.467Z,6.80
2018-10-19T19:10:54.378Z,6.67
2018-10-19T19:13:58.468Z,6.65
2018-10-19T19:17:02.969Z,6.62
2018-10-19T19:20:13.427Z,6.58
2018-10-19T19:23:17.456Z,6.49
2018-10-19T19:26:23.033Z,6.41
2018-10-19T19:29:26.923Z,6.41
2018-10-19T19:32:31.149Z,6.42
2018-10-19T19:35:35.386Z,6.35
2018-10-19T19:38:39.297Z,6.34
2018-10-19T19:41:48.822Z,6.31
2018-10-19T19:44:52.706Z,6.27
2018-10-19T19:48:02.095Z,6.22
2018-10-19T19:51:06.513Z,6.20
2018-10-19T19:54:10.443Z,6.14
2018-10-19T19:57:14.488Z,6.07
2018-10-19T20:00:18.382Z,6.04
2018-10-19T20:03:22.468Z,6.01
2018-10-19T20:06:26.357Z,5.97
2018-10-19T20:09:30.592Z,5.94
2018-10-19T20:12:34.595Z,5.89
2018-10-19T20:15:38.490Z,5.86
2018-10-19T20:18:42.714Z,5.80
2018-10-19T20:21:46.626Z,5.75
2018-10-19T20:24:50.525Z,5.71
2018-10-19T20:27:54.409Z,5.65
2018-10-19T20:30:58.306Z,5.59
2018-10-19T20:34:02.190Z,5.63
2018-10-19T20:37:06.088Z,5.57
2018-10-19T20:40:09.974Z,5.48
2018-10-19T20:43:14.061Z,5.44
2018-10-19T20:46:18.494Z,5.44
2018-10-19T20:49:29.849Z,5.45
2018-10-19T20:52:39.418Z,5.34
2018-10-19T20:55:43.414Z,5.32
2018-10-19T20:58:47.301Z,5.24
2018-10-19T21:01:51.195Z,5.18
2018-10-19T21:04:55.983Z,5.15
2018-10-19T21:08:00.021Z,5.09
2018-10-19T21:11:04.436Z,5.07
2018-10-19T21:14:08.892Z,4.98
2018-10-19T21:17:12.981Z,4.94
2018-10-19T21:20:17.035Z,4.93
2018-10-19T21:23:21.121Z,4.86
2018-10-19T21:26:25.397Z,4.85
2018-10-19T21:29:29.295Z,4.83
2018-10-19T21:32:33.183Z,4.83
2018-10-19T21:35:37.073Z,4.79
2018-10-19T21:38:41.167Z,4.77
2018-10-19T21:41:45.207Z,4.78
2018-10-19T21:44:49.120Z,4.75
2018-10-19T21:47:53.341Z,4.83
2018-10-19T21:50:57.226Z,4.79
2018-10-19T21:54:01.127Z,4.82
2018-10-19T21:57:05.532Z,4.87
2018-10-19T22:00:10.090Z,4.88
2018-10-19T22:03:14.199Z,4.86
2018-10-19T22:06:18.269Z,4.88
2018-10-19T22:09:22.165Z,4.92
2018-10-19T22:12:26.393Z,4.90
2018-10-19T22:15:30.286Z,4.92
2018-10-19T22:18:34.510Z,4.95
2018-10-19T22:21:38.599Z,4.96
2018-10-19T22:24:42.556Z,5.01
2018-10-19T22:27:46.618Z,4.99
2018-10-19T22:30:50.510Z,5.03
2018-10-19T22:33:54.397Z,5.11
2018-10-19T22:36:58.309Z,5.15
2018-10-19T22:40:02.646Z,5.07
2018-10-19T22:43:06.835Z,5.07
2018-10-19T22:46:10.869Z,5.04
2018-10-19T22:49:15.192Z,5.09
2018-10-19T22:52:19.222Z,5.08
2018-10-19T22:55:23.140Z,5.08
2018-10-19T22:58:27.242Z,5.09
2018-10-19T23:01:31.126Z,5.13
2018-10-19T23:04:35.033Z,5.16
2018-10-19T23:07:38.925Z,5.16
2018-10-19T23:10:42.896Z,5.18
2018-10-19T23:13:46.793Z,5.14
2018-10-19T23:16:51.033Z,5.25
2018-10-19T23:19:54.937Z,5.20
2018-10-19T23:22:58.835Z,5.21
2018-10-19T23:26:03.386Z,5.18
2018-10-19T23:29:07.466Z,5.16
2018-10-19T23:32:11.500Z,5.16
2018-10-19T23:35:15.644Z,5.18
2018-10-19T23:38:19.707Z,5.21
2018-10-19T23:41:23.605Z,5.18
2018-10-19T23:44:27.529Z,5.14
2018-10-19T23:47:31.763Z,5.16
2018-10-19T23:50:35.994Z,5.15
2018-10-19T23:53:40.219Z,5.24
2018-10-19T23:56:44.085Z,5.23
2018-10-19T23:59:48.038Z,5.25
